createdAt,value
2023-04-28T00:00:07.524Z,9.40
2023-04-28T00:02:34.617Z,9.40
2023-04-28T00:05:01.985Z,9.40
2023-04-28T00:07:29.105Z,9.40
2023-04-28T00:09:56.924Z,9.40
2023-04-28T00:12:24.093Z,9.40
2023-04-28T00:14:51.191Z,9.40
2023-04-28T00:17:18.281Z,9.40
2023-04-28T00:19:45.698Z,9.40
2023-04-28T00:22:12.692Z,9.40
2023-04-28T00:24:41.732Z,9.40
2023-04-28T00:27:08.737Z,9.40
2023-04-28T00:29:36.699Z,9.40
2023-04-28T00:32:03.835Z,9.40
2023-04-28T00:34:37.204Z,9.40
2023-04-28T00:37:04.651Z,9.40
2023-04-28T00:39:31.800Z,9.40
2023-04-28T00:41:58.994Z,9.40
2023-04-28T00:44:26.179Z,9.40
2023-04-28T00:46:53.364Z,9.40
2023-04-28T00:49:20.330Z,9.40
2023-04-28T00:51:47.316Z,9.40
2023-04-28T00:54:14.956Z,9.40
2023-04-28T00:56:43.005Z,9.40
2023-04-28T00:59:10.180Z,9.40
2023-04-28T01:01:37.718Z,9.40
2023-04-28T01:04:05.210Z,9.40
2023-04-28T01:06:32.604Z,9.50
2023-04-28T01:09:01.602Z,9.50
2023-04-28T01:11:28.656Z,9.40
2023-04-28T01:14:08.371Z,9.50
2023-04-28T01:16:38.389Z,9.50
2023-04-28T01:19:07.521Z,9.40
2023-04-28T01:21:36.763Z,9.50
2023-04-28T01:24:17.103Z,9.50
2023-04-28T01:26:45.431Z,9.40
2023-04-28T01:29:12.453Z,9.40
2023-04-28T01:31:39.511Z,9.40
2023-04-28T01:34:06.490Z,9.50
2023-04-28T01:36:35.308Z,9.40
2023-04-28T01:39:04.583Z,9.40
2023-04-28T01:41:34.261Z,9.40
2023-04-28T01:44:01.344Z,9.40
2023-04-28T01:46:28.372Z,9.40
2023-04-28T01:48:55.685Z,9.40
2023-04-28T01:51:22.697Z,9.40
2023-04-28T01:53:49.742Z,9.30
2023-04-28T01:56:16.913Z,9.30
2023-04-28T01:58:44.065Z,9.30
2023-04-28T02:01:12.339Z,9.30
2023-04-28T02:03:39.491Z,9.30
2023-04-28T02:06:06.623Z,9.30
2023-04-28T02:08:33.587Z,9.30
2023-04-28T02:11:01.634Z,9.30
2023-04-28T02:13:29.010Z,9.30
2023-04-28T02:15:56.622Z,9.30
2023-04-28T02:18:23.693Z,9.30
2023-04-28T02:20:51.272Z,9.30
2023-04-28T02:23:18.226Z,9.30
2023-04-28T02:25:45.306Z,9.30
2023-04-28T02:28:14.037Z,9.40
2023-04-28T02:30:41.250Z,9.40
2023-04-28T02:33:08.292Z,9.40
2023-04-28T02:35:35.514Z,9.30
2023-04-28T02:38:02.634Z,9.40
2023-04-28T02:40:30.361Z,9.30
2023-04-28T02:42:57.967Z,9.40
2023-04-28T02:45:24.953Z,9.40
2023-04-28T02:47:52.086Z,9.40
2023-04-28T02:50:19.137Z,9.40
2023-04-28T02:52:48.855Z,9.40
2023-04-28T02:55:23.700Z,9.30
2023-04-28T02:57:51.547Z,9.30
2023-04-28T03:00:18.637Z,9.30
2023-04-28T03:02:48.674Z,9.30
2023-04-28T03:05:15.874Z,9.30
2023-04-28T03:07:43.087Z,9.30
2023-04-28T03:10:10.436Z,9.30
2023-04-28T03:12:37.569Z,9.30
2023-04-28T03:15:08.744Z,9.30
2023-04-28T03:17:39.261Z,9.30
2023-04-28T03:20:06.751Z,9.30
2023-04-28T03:22:33.905Z,9.30
2023-04-28T03:25:00.966Z,9.30
2023-04-28T03:27:30.362Z,9.30
2023-04-28T03:29:58.038Z,9.30
2023-04-28T03:32:25.116Z,9.30
2023-04-28T03:34:52.166Z,9.30
2023-04-28T03:37:19.229Z,9.30
2023-04-28T03:39:46.191Z,9.20
2023-04-28T03:42:13.183Z,9.20
2023-04-28T03:45:00.371Z,9.20
2023-04-28T03:47:28.425Z,9.20
2023-04-28T03:49:55.632Z,9.20
2023-04-28T03:52:22.586Z,9.20
2023-04-28T03:54:49.581Z,9.20
2023-04-28T03:57:16.597Z,9.20
2023-04-28T03:59:43.581Z,9.20
2023-04-28T04:02:11.177Z,9.20
2023-04-28T04:04:39.354Z,9.20
2023-04-28T04:07:06.624Z,9.20
2023-04-28T04:09:33.695Z,9.20
2023-04-28T04:12:01.222Z,9.20
2023-04-28T04:14:28.262Z,9.20
2023-04-28T04:16:55.564Z,9.20
2023-04-28T04:19:24.022Z,9.20
2023-04-28T04:21:54.049Z,9.20
2023-04-28T04:24:21.349Z,9.20
2023-04-28T04:26:48.786Z,9.20
2023-04-28T04:29:27.872Z,9.20
2023-04-28T04:31:54.999Z,9.20
2023-04-28T04:34:22.117Z,9.20
2023-04-28T04:36:49.432Z,9.20
2023-04-28T04:39:16.752Z,9.20
2023-04-28T04:41:43.767Z,9.20
2023-04-28T04:44:39.751Z,9.20
2023-04-28T04:47:11.841Z,9.20
2023-04-28T04:49:38.952Z,9.20
2023-04-28T04:52:06.925Z,9.30
2023-04-28T04:54:33.965Z,9.30
2023-04-28T04:57:01.720Z,9.40
2023-04-28T04:59:48.619Z,9.40
2023-04-28T05:02:17.929Z,9.40
2023-04-28T05:04:45.155Z,9.40
2023-04-28T05:07:14.264Z,9.40
2023-04-28T05:09:41.604Z,9.40
2023-04-28T05:12:08.623Z,9.50
2023-04-28T05:14:36.219Z,9.50
2023-04-28T05:17:03.327Z,9.50
2023-04-28T05:19:34.212Z,9.50
2023-04-28T05:22:03.371Z,9.50
2023-04-28T05:24:30.469Z,9.50
2023-04-28T05:26:58.199Z,9.50
2023-04-28T05:29:25.266Z,9.50
2023-04-28T05:31:52.308Z,9.50
2023-04-28T05:34:20.702Z,9.50
2023-04-28T05:36:47.714Z,9.50
2023-04-28T05:39:14.910Z,9.60
2023-04-28T05:41:42.551Z,9.60
2023-04-28T05:44:09.583Z,9.60
2023-04-28T05:46:36.766Z,9.60
2023-04-28T05:49:03.948Z,9.60
2023-04-28T05:51:35.346Z,9.60
2023-04-28T05:54:03.045Z,9.70
2023-04-28T05:56:30.860Z,9.70
2023-04-28T05:58:59.060Z,9.70
2023-04-28T06:01:36.437Z,9.70
2023-04-28T06:04:03.764Z,9.70
2023-04-28T06:06:31.613Z,9.70
2023-04-28T06:08:59.849Z,9.70
2023-04-28T06:11:26.889Z,9.70
2023-04-28T06:13:54.002Z,9.70
2023-04-28T06:16:21.551Z,9.70
2023-04-28T06:18:49.829Z,9.70
2023-04-28T06:21:21.139Z,9.80
2023-04-28T06:23:48.499Z,9.80
2023-04-28T06:26:18.215Z,9.90
2023-04-28T06:28:45.952Z,9.90
2023-04-28T06:31:13.246Z,9.90
2023-04-28T06:33:40.404Z,9.90
2023-04-28T06:36:07.610Z,9.90
2023-04-28T06:38:34.595Z,10.00
2023-04-28T06:41:01.619Z,10.00
2023-04-28T06:43:29.437Z,10.10
2023-04-28T06:46:06.524Z,10.10
2023-04-28T06:48:33.569Z,10.20
2023-04-28T06:51:00.612Z,10.20
2023-04-28T06:53:27.640Z,10.30
2023-04-28T06:55:54.757Z,10.40
2023-04-28T06:58:21.795Z,10.50
2023-04-28T07:00:51.226Z,10.60
2023-04-28T07:03:18.339Z,10.70
2023-04-28T07:05:46.157Z,10.80
2023-04-28T07:08:13.432Z,10.90
2023-04-28T07:10:40.730Z,11.00
2023-04-28T07:13:08.161Z,11.00
2023-04-28T07:15:35.221Z,11.10
2023-04-28T07:18:02.534Z,11.20
2023-04-28T07:20:29.566Z,11.20
2023-04-28T07:22:56.523Z,11.20
2023-04-28T07:25:23.496Z,11.30
2023-04-28T07:27:50.537Z,11.30
2023-04-28T07:30:27.337Z,11.40
2023-04-28T07:32:55.360Z,11.50
2023-04-28T07:35:22.667Z,11.50
2023-04-28T07:37:49.686Z,11.50
2023-04-28T07:40:16.771Z,11.50
2023-04-28T07:42:43.912Z,11.50
2023-04-28T07:45:11.043Z,11.50
2023-04-28T07:47:38.225Z,11.50
2023-04-28T07:50:06.835Z,11.50
2023-04-28T07:52:33.818Z,11.60
2023-04-28T07:55:01.228Z,11.50
2023-04-28T07:57:29.224Z,11.50
2023-04-28T07:59:56.309Z,11.50
2023-04-28T08:02:23.445Z,11.50
2023-04-28T08:04:50.841Z,11.40
2023-04-28T08:07:18.005Z,11.50
2023-04-28T08:09:47.720Z,11.40
2023-04-28T08:12:14.887Z,11.40
2023-04-28T08:14:41.857Z,11.40
2023-04-28T08:17:09.282Z,11.30
2023-04-28T08:19:36.449Z,11.30
2023-04-28T08:22:07.250Z,11.30
2023-04-28T08:24:34.385Z,11.30
2023-04-28T08:27:03.025Z,11.30
2023-04-28T08:29:30.399Z,11.30
2023-04-28T08:31:57.698Z,11.40
2023-04-28T08:34:24.663Z,11.30
2023-04-28T08:36:51.829Z,11.30
2023-04-28T08:39:20.338Z,11.30
2023-04-28T08:41:47.401Z,11.20
2023-04-28T08:44:14.811Z,11.20
2023-04-28T08:46:42.164Z,11.20
2023-04-28T08:49:12.704Z,11.20
2023-04-28T08:51:45.265Z,11.20
2023-04-28T08:54:29.318Z,11.10
2023-04-28T08:56:57.003Z,11.10
2023-04-28T08:59:23.990Z,11.10
2023-04-28T09:01:51.112Z,11.20
2023-04-28T09:04:18.921Z,11.20
2023-04-28T09:06:46.707Z,11.20
2023-04-28T09:09:20.782Z,11.30
2023-04-28T09:11:51.431Z,11.30
2023-04-28T09:14:18.922Z,11.30
2023-04-28T09:16:46.157Z,11.40
2023-04-28T09:19:13.215Z,11.40
2023-04-28T09:21:49.918Z,11.40
2023-04-28T09:24:33.173Z,11.40
2023-04-28T09:27:00.801Z,11.40
2023-04-28T09:29:28.299Z,11.50
2023-04-28T09:31:55.432Z,11.40
2023-04-28T09:34:22.532Z,11.40
2023-04-28T09:36:49.630Z,11.40
2023-04-28T09:39:28.205Z,11.30
2023-04-28T09:41:55.183Z,11.30
2023-04-28T09:44:23.666Z,11.20
2023-04-28T09:46:50.718Z,11.20
2023-04-28T09:49:17.730Z,11.20
2023-04-28T09:51:44.780Z,11.10
2023-04-28T09:54:11.750Z,11.10
2023-04-28T09:56:41.639Z,11.10
2023-04-28T09:59:10.006Z,11.10
2023-04-28T10:01:38.471Z,11.10
2023-04-28T10:04:08.065Z,11.00
2023-04-28T10:06:41.428Z,11.10
2023-04-28T10:09:08.501Z,11.10
2023-04-28T10:11:35.606Z,11.10
2023-04-28T10:14:02.862Z,11.10
2023-04-28T10:16:31.793Z,11.10
2023-04-28T10:18:58.928Z,11.10
2023-04-28T10:21:25.932Z,11.10
2023-04-28T10:24:12.309Z,11.10
2023-04-28T10:26:58.859Z,11.10
2023-04-28T10:29:25.852Z,11.10
2023-04-28T10:32:11.722Z,11.10
2023-04-28T10:34:39.340Z,11.10
2023-04-28T10:37:06.651Z,11.20
2023-04-28T10:39:33.846Z,11.20
2023-04-28T10:42:01.761Z,11.20
2023-04-28T10:44:28.784Z,11.20
2023-04-28T10:47:09.442Z,11.20
2023-04-28T10:49:56.102Z,11.30
2023-04-28T10:52:38.683Z,11.30
2023-04-28T10:55:24.466Z,11.30
2023-04-28T10:58:10.301Z,11.30
2023-04-28T11:00:37.552Z,11.30
2023-04-28T11:03:04.638Z,11.30
2023-04-28T11:05:33.371Z,11.30
2023-04-28T11:08:18.788Z,11.30
2023-04-28T11:11:04.568Z,11.30
2023-04-28T11:13:34.293Z,11.40
2023-04-28T11:16:05.577Z,11.40
2023-04-28T11:18:44.180Z,11.40
2023-04-28T11:21:11.246Z,11.40
2023-04-28T11:23:38.234Z,11.40
2023-04-28T11:26:05.324Z,11.40
2023-04-28T11:28:32.300Z,11.40
2023-04-28T11:31:22.193Z,11.40
2023-04-28T11:34:11.838Z,11.40
2023-04-28T11:36:39.083Z,11.40
2023-04-28T11:39:07.729Z,11.40
2023-04-28T11:41:35.555Z,11.40
2023-04-28T11:44:12.416Z,11.50
2023-04-28T11:46:51.557Z,11.50
2023-04-28T11:49:18.626Z,11.50
2023-04-28T11:51:48.524Z,11.60
2023-04-28T11:54:19.774Z,11.60
2023-04-28T11:56:46.745Z,11.60
2023-04-28T11:59:13.922Z,11.60
2023-04-28T12:01:51.738Z,11.60
2023-04-28T12:04:28.209Z,11.70
2023-04-28T12:07:05.626Z,11.70
2023-04-28T12:09:33.429Z,11.70
2023-04-28T12:12:02.401Z,11.70
2023-04-28T12:14:30.166Z,11.70
2023-04-28T12:16:59.358Z,11.70
2023-04-28T12:19:26.715Z,11.70
2023-04-28T12:21:59.896Z,11.80
2023-04-28T12:24:27.063Z,11.80
2023-04-28T12:26:54.650Z,11.80
2023-04-28T12:29:40.322Z,11.90
2023-04-28T12:32:08.006Z,11.90
2023-04-28T12:34:35.265Z,12.00
2023-04-28T12:37:04.763Z,12.00
2023-04-28T12:39:38.635Z,12.10
2023-04-28T12:42:10.962Z,12.10
2023-04-28T12:44:45.576Z,12.10
2023-04-28T12:47:15.291Z,12.20
2023-04-28T12:49:42.518Z,12.30
2023-04-28T12:52:09.756Z,12.30
2023-04-28T12:54:36.917Z,12.30
2023-04-28T12:57:10.511Z,12.40
2023-04-28T12:59:38.904Z,12.40
2023-04-28T13:02:16.296Z,12.40
2023-04-28T13:04:45.536Z,12.50
2023-04-28T13:07:13.245Z,12.50
2023-04-28T13:09:43.975Z,12.60
2023-04-28T13:12:14.583Z,12.60
2023-04-28T13:14:44.379Z,12.60
2023-04-28T13:17:12.354Z,12.70
2023-04-28T13:19:42.486Z,12.70
2023-04-28T13:22:12.750Z,12.70
2023-04-28T13:24:42.268Z,12.70
2023-04-28T13:27:11.891Z,12.80
2023-04-28T13:29:39.041Z,12.80
2023-04-28T13:32:11.813Z,12.70
2023-04-28T13:34:42.780Z,12.80
2023-04-28T13:37:13.211Z,12.80
2023-04-28T13:39:43.221Z,12.80
2023-04-28T13:42:13.326Z,12.90
2023-04-28T13:44:40.680Z,12.90
2023-04-28T13:47:10.770Z,13.00
2023-04-28T13:49:40.220Z,13.10
2023-04-28T13:52:07.217Z,13.10
2023-04-28T13:54:34.249Z,13.20
2023-04-28T13:57:01.350Z,13.20
2023-04-28T13:59:28.407Z,13.30
2023-04-28T14:02:03.400Z,13.30
2023-04-28T14:04:31.391Z,13.40
2023-04-28T14:06:58.737Z,13.40
2023-04-28T14:09:25.819Z,13.40
2023-04-28T14:11:53.086Z,13.50
2023-04-28T14:14:22.638Z,13.50
2023-04-28T14:16:49.738Z,13.60
2023-04-28T14:19:22.142Z,13.60
2023-04-28T14:21:49.199Z,13.60
2023-04-28T14:24:16.220Z,13.70
2023-04-28T14:26:43.848Z,13.70
2023-04-28T14:29:10.853Z,13.70
2023-04-28T14:31:38.201Z,13.70
2023-04-28T14:34:05.431Z,13.80
2023-04-28T14:36:33.501Z,13.70
2023-04-28T14:39:01.930Z,13.80
2023-04-28T14:41:30.264Z,13.70
2023-04-28T14:44:02.080Z,13.70
2023-04-28T14:46:32.909Z,13.70
2023-04-28T14:49:02.402Z,13.70
2023-04-28T14:51:37.047Z,13.70
2023-04-28T14:54:06.275Z,13.70
2023-04-28T14:56:33.985Z,13.70
2023-04-28T14:59:03.611Z,13.70
2023-04-28T15:01:33.128Z,13.70
2023-04-28T15:04:01.619Z,13.70
2023-04-28T15:06:28.776Z,13.70
2023-04-28T15:08:58.143Z,13.80
2023-04-28T15:11:25.154Z,13.70
2023-04-28T15:13:54.658Z,13.70
2023-04-28T15:16:23.017Z,13.70
2023-04-28T15:18:52.494Z,13.70
2023-04-28T15:21:19.536Z,13.70
2023-04-28T15:23:46.552Z,13.70
2023-04-28T15:26:13.922Z,13.70
2023-04-28T15:28:40.931Z,13.60
2023-04-28T15:31:07.961Z,13.60
2023-04-28T15:33:34.952Z,13.60
2023-04-28T15:36:01.966Z,13.60
2023-04-28T15:38:31.218Z,13.60
2023-04-28T15:40:58.260Z,13.60
2023-04-28T15:43:25.295Z,13.50
2023-04-28T15:45:52.666Z,13.50
2023-04-28T15:48:19.703Z,13.50
2023-04-28T15:50:46.780Z,13.40
2023-04-28T15:53:13.904Z,13.40
2023-04-28T15:55:40.956Z,13.40
2023-04-28T15:58:08.659Z,13.40
2023-04-28T16:00:35.703Z,13.40
2023-04-28T16:03:03.354Z,13.30
2023-04-28T16:05:30.458Z,13.30
2023-04-28T16:07:57.847Z,13.30
2023-04-28T16:10:24.944Z,13.30
2023-04-28T16:12:51.896Z,13.30
2023-04-28T16:15:19.080Z,13.20
2023-04-28T16:17:46.267Z,13.20
2023-04-28T16:20:13.583Z,13.20
2023-04-28T16:22:40.739Z,13.30
2023-04-28T16:25:08.041Z,13.30
2023-04-28T16:27:35.471Z,13.30
2023-04-28T16:30:02.641Z,13.30
2023-04-28T16:32:30.527Z,13.30
2023-04-28T16:34:57.668Z,13.20
2023-04-28T16:37:24.671Z,13.30
2023-04-28T16:39:52.025Z,13.20
2023-04-28T16:42:20.912Z,13.20
2023-04-28T16:44:48.770Z,13.20
2023-04-28T16:47:17.088Z,13.10
2023-04-28T16:49:44.158Z,13.10
2023-04-28T16:52:11.176Z,13.10
2023-04-28T16:54:38.403Z,13.10
2023-04-28T16:57:05.738Z,13.10
2023-04-28T16:59:33.859Z,13.10
2023-04-28T17:02:02.000Z,13.10
2023-04-28T17:04:29.601Z,13.10
2023-04-28T17:06:56.801Z,13.00
2023-04-28T17:09:23.805Z,13.00
2023-04-28T17:11:50.845Z,13.10
2023-04-28T17:14:18.244Z,13.00
2023-04-28T17:16:45.251Z,13.10
2023-04-28T17:19:12.315Z,13.00
2023-04-28T17:21:39.347Z,13.00
2023-04-28T17:24:06.418Z,12.90
2023-04-28T17:26:33.495Z,12.90
2023-04-28T17:29:00.506Z,12.90
2023-04-28T17:31:27.777Z,12.90
2023-04-28T17:33:55.526Z,12.90
2023-04-28T17:36:28.886Z,12.90
2023-04-28T17:38:56.074Z,13.00
2023-04-28T17:41:23.141Z,13.00
2023-04-28T17:43:51.616Z,13.00
2023-04-28T17:46:18.709Z,13.00
2023-04-28T17:48:45.795Z,13.00
2023-04-28T17:51:12.818Z,13.00
2023-04-28T17:53:39.885Z,13.00
2023-04-28T17:56:08.111Z,12.90
2023-04-28T17:58:36.249Z,12.90
2023-04-28T18:01:03.825Z,12.90
2023-04-28T18:03:31.227Z,13.00
2023-04-28T18:05:58.290Z,12.90
2023-04-28T18:08:25.520Z,12.90
2023-04-28T18:10:52.635Z,12.90
2023-04-28T18:13:19.639Z,12.90
2023-04-28T18:15:46.709Z,12.90
2023-04-28T18:18:13.711Z,12.90
2023-04-28T18:20:41.646Z,12.80
2023-04-28T18:23:09.028Z,12.80
2023-04-28T18:25:37.005Z,12.80
2023-04-28T18:28:04.815Z,12.80
2023-04-28T18:30:37.914Z,12.80
2023-04-28T18:33:06.299Z,12.70
2023-04-28T18:35:33.504Z,12.60
2023-04-28T18:38:03.514Z,12.60
2023-04-28T18:40:34.038Z,12.60
2023-04-28T18:43:02.374Z,12.60
2023-04-28T18:45:30.080Z,12.50
2023-04-28T18:47:58.515Z,12.50
2023-04-28T18:50:26.681Z,12.50
2023-04-28T18:52:53.744Z,12.50
2023-04-28T18:55:20.809Z,12.50
2023-04-28T18:57:50.952Z,12.40
2023-04-28T19:00:18.371Z,12.40
2023-04-28T19:02:45.571Z,12.20
2023-04-28T19:05:13.069Z,12.10
2023-04-28T19:07:40.656Z,12.10
2023-04-28T19:10:07.864Z,12.10
2023-04-28T19:12:35.081Z,12.10
2023-04-28T19:15:02.069Z,12.10
2023-04-28T19:17:31.902Z,12.10
2023-04-28T19:19:58.926Z,12.10
2023-04-28T19:22:31.489Z,12.10
2023-04-28T19:24:58.772Z,12.10
2023-04-28T19:27:29.434Z,12.10
2023-04-28T19:29:56.519Z,12.00
2023-04-28T19:32:23.721Z,12.00
2023-04-28T19:34:50.816Z,12.00
2023-04-28T19:37:17.882Z,12.00
2023-04-28T19:39:45.526Z,12.00
2023-04-28T19:42:12.651Z,12.00
2023-04-28T19:44:39.674Z,12.00
2023-04-28T19:47:07.370Z,12.00
2023-04-28T19:49:35.104Z,12.00
2023-04-28T19:52:02.483Z,12.00
2023-04-28T19:54:29.540Z,11.90
2023-04-28T19:56:56.739Z,11.80
2023-04-28T19:59:23.793Z,11.80
2023-04-28T20:01:51.576Z,11.80
2023-04-28T20:04:19.241Z,11.80
2023-04-28T20:06:47.942Z,11.80
2023-04-28T20:09:14.912Z,11.80
2023-04-28T20:11:43.133Z,11.80
2023-04-28T20:14:10.547Z,11.80
2023-04-28T20:16:37.609Z,11.80
2023-04-28T20:19:04.991Z,11.80
2023-04-28T20:21:32.719Z,11.70
2023-04-28T20:23:59.943Z,11.70
2023-04-28T20:26:27.317Z,11.70
2023-04-28T20:28:54.327Z,11.60
2023-04-28T20:31:22.839Z,11.60
2023-04-28T20:33:49.858Z,11.60
2023-04-28T20:36:16.819Z,11.60
2023-04-28T20:38:43.795Z,11.60
2023-04-28T20:41:10.886Z,11.60
2023-04-28T20:43:38.007Z,11.60
2023-04-28T20:46:09.995Z,11.50
2023-04-28T20:48:37.116Z,11.50
2023-04-28T20:51:06.468Z,11.50
2023-04-28T20:53:33.487Z,11.50
2023-04-28T20:56:00.599Z,11.50
2023-04-28T20:58:28.064Z,11.40
2023-04-28T21:00:55.062Z,11.40
2023-04-28T21:03:23.698Z,11.30
2023-04-28T21:05:50.909Z,11.30
2023-04-28T21:08:17.876Z,11.30
2023-04-28T21:10:44.984Z,11.20
2023-04-28T21:13:12.986Z,11.20
2023-04-28T21:15:40.511Z,11.20
2023-04-28T21:18:07.822Z,11.20
2023-04-28T21:20:35.094Z,11.20
2023-04-28T21:23:02.582Z,11.10
2023-04-28T21:25:29.604Z,11.10
2023-04-28T21:27:57.014Z,11.10
2023-04-28T21:30:24.538Z,11.10
2023-04-28T21:32:51.552Z,11.10
2023-04-28T21:35:18.588Z,11.10
2023-04-28T21:37:45.562Z,11.10
2023-04-28T21:40:13.362Z,11.00
2023-04-28T21:42:40.356Z,11.00
2023-04-28T21:45:09.317Z,11.00
2023-04-28T21:47:36.368Z,11.00
2023-04-28T21:50:03.527Z,11.00
2023-04-28T21:52:31.120Z,11.00
2023-04-28T21:54:59.034Z,10.90
2023-04-28T21:57:26.193Z,10.90
2023-04-28T21:59:53.311Z,10.90
2023-04-28T22:02:20.369Z,10.90
2023-04-28T22:04:47.507Z,10.90
2023-04-28T22:07:14.490Z,10.90
2023-04-28T22:09:41.555Z,10.90
2023-04-28T22:12:10.852Z,10.80
2023-04-28T22:14:41.640Z,10.80
2023-04-28T22:17:17.296Z,10.80
2023-04-28T22:19:44.352Z,10.90
2023-04-28T22:22:12.234Z,10.80
2023-04-28T22:24:44.201Z,10.80
2023-04-28T22:27:11.188Z,10.80
2023-04-28T22:29:38.162Z,10.80
2023-04-28T22:32:05.330Z,10.80
2023-04-28T22:34:32.493Z,10.80
2023-04-28T22:36:59.481Z,10.80
2023-04-28T22:39:26.865Z,10.80
2023-04-28T22:41:54.058Z,10.80
2023-04-28T22:44:21.091Z,10.80
2023-04-28T22:46:48.114Z,10.80
2023-04-28T22:49:15.198Z,10.80
2023-04-28T22:51:42.170Z,10.70
2023-04-28T22:54:09.213Z,10.70
2023-04-28T22:56:36.229Z,10.70
2023-04-28T22:59:03.629Z,10.70
2023-04-28T23:01:31.851Z,10.70
2023-04-28T23:03:59.103Z,10.70
2023-04-28T23:06:28.748Z,10.70
2023-04-28T23:08:55.847Z,10.70
2023-04-28T23:11:24.148Z,10.70
2023-04-28T23:13:51.294Z,10.60
2023-04-28T23:16:18.322Z,10.60
2023-04-28T23:18:45.550Z,10.60
2023-04-28T23:21:12.511Z,10.60
2023-04-28T23:23:39.538Z,10.50
2023-04-28T23:26:09.151Z,10.60
2023-04-28T23:28:36.282Z,10.50
2023-04-28T23:31:05.648Z,10.50
2023-04-28T23:33:32.690Z,10.50
2023-04-28T23:35:59.657Z,10.50
2023-04-28T23:38:26.982Z,10.50
2023-04-28T23:40:54.651Z,10.50
2023-04-28T23:43:21.757Z,10.40
2023-04-28T23:45:48.828Z,10.40
2023-04-28T23:48:15.892Z,10.50
2023-04-28T23:50:42.872Z,10.40
2023-04-28T23:53:09.982Z,10.40
2023-04-28T23:55:37.079Z,10.40
2023-04-28T23:58:04.125Z,10.40
